createdAt,value
2023-04-26T00:04:05.206Z,4.56
2023-04-26T00:09:14.541Z,4.48
2023-04-26T00:14:18.466Z,4.34
2023-04-26T00:19:21.406Z,4.06
2023-04-26T00:24:23.113Z,3.79
2023-04-26T00:29:24.805Z,3.69
2023-04-26T00:34:32.552Z,3.84
2023-04-26T00:39:36.800Z,4.02
2023-04-26T00:44:40.945Z,4.13
2023-04-26T00:49:45.425Z,4.22
2023-04-26T00:54:49.028Z,4.27
2023-04-26T00:59:50.734Z,4.37
2023-04-26T01:04:55.934Z,4.32
2023-04-26T01:10:00.441Z,4.18
2023-04-26T01:15:06.300Z,3.86
2023-04-26T01:20:10.484Z,3.69
2023-04-26T01:25:12.776Z,3.76
2023-04-26T01:30:16.912Z,3.89
2023-04-26T01:35:18.609Z,4.02
2023-04-26T01:40:23.102Z,4.00
2023-04-26T01:45:24.822Z,3.82
2023-04-26T01:50:58.763Z,3.79
2023-04-26T01:56:03.732Z,3.84
2023-04-26T02:01:09.097Z,3.92
2023-04-26T02:06:11.989Z,3.94
2023-04-26T02:11:13.753Z,3.93
2023-04-26T02:16:17.779Z,3.95
2023-04-26T02:21:21.544Z,4.02
2023-04-26T02:26:32.593Z,4.00
2023-04-26T02:31:35.996Z,3.88
2023-04-26T02:36:38.224Z,3.67
2023-04-26T02:41:42.293Z,3.43
2023-04-26T02:46:43.957Z,3.15
2023-04-26T02:51:46.271Z,3.06
2023-04-26T02:56:50.912Z,3.17
2023-04-26T03:01:56.122Z,3.26
2023-04-26T03:06:58.456Z,3.27
2023-04-26T03:12:06.097Z,3.16
2023-04-26T03:17:08.404Z,3.05
2023-04-26T03:22:16.118Z,3.06
2023-04-26T03:27:17.876Z,3.02
2023-04-26T03:32:19.698Z,3.02
2023-04-26T03:37:21.983Z,3.01
2023-04-26T03:42:31.355Z,3.13
2023-04-26T03:47:33.188Z,3.19
2023-04-26T03:52:34.927Z,3.15
2023-04-26T03:57:38.365Z,3.12
2023-04-26T04:02:41.689Z,3.01
2023-04-26T04:07:45.262Z,2.87
2023-04-26T04:12:49.399Z,2.68
2023-04-26T04:17:51.263Z,2.58
2023-04-26T04:22:56.213Z,2.67
2023-04-26T04:28:02.000Z,2.65
2023-04-26T04:33:09.100Z,2.58
2023-04-26T04:38:13.288Z,2.48
2023-04-26T04:43:17.795Z,2.34
2023-04-26T04:48:22.620Z,2.25
2023-04-26T04:53:27.084Z,2.24
2023-04-26T04:58:31.277Z,2.31
2023-04-26T05:03:34.177Z,2.38
2023-04-26T05:08:37.760Z,2.49
2023-04-26T05:13:40.962Z,2.81
2023-04-26T05:18:45.156Z,3.52
2023-04-26T05:23:49.389Z,3.78
2023-04-26T05:28:53.310Z,3.79
2023-04-26T05:34:17.499Z,3.54
2023-04-26T05:39:27.252Z,3.44
2023-04-26T05:44:29.452Z,3.64
2023-04-26T05:49:31.628Z,4.06
2023-04-26T05:54:36.151Z,4.63
2023-04-26T05:59:41.260Z,4.96
2023-04-26T06:04:43.676Z,5.21
2023-04-26T06:09:48.774Z,5.40
2023-04-26T06:14:50.962Z,5.48
2023-04-26T06:20:01.428Z,5.57
2023-04-26T06:25:06.762Z,5.57
2023-04-26T06:30:13.107Z,5.35
2023-04-26T06:35:23.325Z,5.01
2023-04-26T06:40:25.398Z,5.08
2023-04-26T06:45:27.893Z,5.49
2023-04-26T06:50:34.293Z,6.20
2023-04-26T06:55:36.122Z,6.31
2023-04-26T07:00:40.064Z,6.21
2023-04-26T07:05:44.097Z,5.83
2023-04-26T07:10:55.438Z,5.66
2023-04-26T07:15:57.334Z,5.71
2023-04-26T07:21:06.140Z,5.84
2023-04-26T07:26:10.474Z,6.12
2023-04-26T07:31:14.522Z,6.53
2023-04-26T07:36:16.269Z,6.69
2023-04-26T07:41:17.976Z,6.75
2023-04-26T07:46:24.754Z,6.51
2023-04-26T07:51:27.501Z,6.19
2023-04-26T07:56:29.239Z,5.83
2023-04-26T08:01:35.935Z,5.64
2023-04-26T08:06:39.223Z,5.73
2023-04-26T08:11:45.465Z,5.65
2023-04-26T08:16:50.078Z,5.68
2023-04-26T08:21:51.859Z,5.75
2023-04-26T08:26:58.575Z,6.04
2023-04-26T08:32:02.488Z,6.38
2023-04-26T08:37:05.406Z,6.92
2023-04-26T08:42:14.953Z,8.15
2023-04-26T08:47:21.767Z,7.97
2023-04-26T08:52:23.715Z,7.11
2023-04-26T08:57:27.936Z,6.99
2023-04-26T09:02:32.350Z,7.21
2023-04-26T09:07:40.939Z,7.50
2023-04-26T09:12:42.670Z,7.69
2023-04-26T09:17:45.979Z,7.41
2023-04-26T09:22:52.020Z,7.84
2023-04-26T09:27:54.002Z,8.20
2023-04-26T09:32:57.207Z,8.47
2023-04-26T09:38:07.817Z,8.68
2023-04-26T09:43:24.944Z,9.14
2023-04-26T09:48:30.689Z,9.43
2023-04-26T09:53:46.557Z,10.04
2023-04-26T09:58:58.112Z,9.84
2023-04-26T10:04:04.615Z,9.25
2023-04-26T10:09:09.192Z,9.42
2023-04-26T10:14:14.078Z,9.78
2023-04-26T10:19:18.382Z,10.58
2023-04-26T10:24:20.176Z,10.48
2023-04-26T10:29:24.850Z,10.72
2023-04-26T10:34:33.297Z,10.81
2023-04-26T10:39:35.015Z,10.19
2023-04-26T10:44:45.887Z,9.40
2023-04-26T10:49:50.468Z,9.78
2023-04-26T10:54:57.992Z,9.99
2023-04-26T11:00:14.694Z,10.68
2023-04-26T11:05:47.446Z,10.98
2023-04-26T11:11:04.787Z,11.20
2023-04-26T11:16:11.231Z,11.40
2023-04-26T11:21:18.311Z,11.49
2023-04-26T11:26:20.054Z,11.42
2023-04-26T11:31:22.185Z,11.51
2023-04-26T11:36:28.649Z,11.85
2023-04-26T11:41:30.529Z,12.29
2023-04-26T11:46:34.585Z,12.48
2023-04-26T11:51:39.020Z,12.68
2023-04-26T11:56:42.950Z,13.29
2023-04-26T12:01:51.518Z,14.46
2023-04-26T12:06:53.307Z,15.94
2023-04-26T12:12:02.254Z,16.65
2023-04-26T12:17:10.533Z,15.59
2023-04-26T12:22:14.704Z,14.31
2023-04-26T12:27:22.921Z,15.91
2023-04-26T12:32:27.534Z,18.64
2023-04-26T12:37:29.355Z,18.27
2023-04-26T12:42:33.437Z,16.40
2023-04-26T12:47:35.527Z,15.54
2023-04-26T12:52:37.278Z,14.33
2023-04-26T12:57:43.149Z,13.48
2023-04-26T13:02:47.491Z,13.23
2023-04-26T13:07:51.741Z,13.44
2023-04-26T13:12:53.966Z,13.98
2023-04-26T13:17:55.919Z,14.40
2023-04-26T13:22:59.911Z,14.76
2023-04-26T13:28:04.471Z,15.92
2023-04-26T13:33:06.239Z,16.69
2023-04-26T13:38:08.095Z,18.84
2023-04-26T13:43:10.763Z,19.38
2023-04-26T13:48:19.437Z,21.33
2023-04-26T13:53:23.822Z,23.73
2023-04-26T13:58:27.989Z,21.98
2023-04-26T14:03:30.057Z,20.55
2023-04-26T14:08:32.019Z,20.75
2023-04-26T14:13:35.835Z,20.36
2023-04-26T14:18:37.714Z,21.38
2023-04-26T14:23:44.468Z,21.18
2023-04-26T14:28:46.252Z,20.00
2023-04-26T14:33:50.238Z,18.53
2023-04-26T14:38:51.972Z,18.15
2023-04-26T14:43:56.151Z,17.70
2023-04-26T14:48:58.216Z,17.50
2023-04-26T14:54:02.402Z,16.66
2023-04-26T14:59:04.397Z,15.75
2023-04-26T15:04:08.662Z,15.06
2023-04-26T15:09:13.163Z,14.81
2023-04-26T15:14:17.137Z,15.42
2023-04-26T15:19:19.426Z,19.94
2023-04-26T15:24:23.569Z,24.31
2023-04-26T15:29:25.348Z,22.67
2023-04-26T15:34:30.201Z,24.56
2023-04-26T15:39:38.348Z,24.46
2023-04-26T15:44:42.454Z,19.52
2023-04-26T15:49:46.388Z,17.03
2023-04-26T15:54:48.273Z,16.61
2023-04-26T15:59:50.005Z,17.26
2023-04-26T16:04:57.312Z,20.00
2023-04-26T16:10:01.151Z,22.01
2023-04-26T16:15:06.814Z,25.42
2023-04-26T16:20:11.611Z,20.39
2023-04-26T16:25:13.488Z,17.50
2023-04-26T16:30:15.406Z,16.84
2023-04-26T16:35:22.568Z,17.56
2023-04-26T16:40:27.412Z,16.95
2023-04-26T16:45:31.404Z,15.61
2023-04-26T16:50:35.652Z,14.96
2023-04-26T16:55:41.798Z,14.89
2023-04-26T17:00:46.106Z,13.91
2023-04-26T17:05:50.640Z,13.39
2023-04-26T17:10:52.825Z,13.13
2023-04-26T17:15:57.176Z,12.68
2023-04-26T17:21:01.736Z,12.25
2023-04-26T17:26:05.892Z,11.82
2023-04-26T17:31:15.439Z,11.65
2023-04-26T17:36:17.821Z,11.30
2023-04-26T17:41:22.507Z,11.02
2023-04-26T17:46:26.627Z,10.80
2023-04-26T17:51:28.483Z,10.64
2023-04-26T17:56:30.476Z,10.42
2023-04-26T18:01:34.751Z,10.20
2023-04-26T18:06:40.181Z,9.86
2023-04-26T18:11:47.590Z,9.76
2023-04-26T18:16:51.588Z,9.55
2023-04-26T18:21:55.603Z,9.32
2023-04-26T18:26:57.396Z,9.06
2023-04-26T18:32:01.392Z,8.81
2023-04-26T18:37:03.301Z,9.62
2023-04-26T18:42:05.510Z,9.17
2023-04-26T18:47:09.857Z,8.90
2023-04-26T18:52:11.611Z,8.76
2023-04-26T18:57:14.764Z,8.52
2023-04-26T19:02:16.700Z,8.52
2023-04-26T19:07:21.112Z,8.41
2023-04-26T19:12:25.402Z,8.31
2023-04-26T19:17:31.822Z,7.86
2023-04-26T19:22:37.334Z,7.51
2023-04-26T19:27:44.817Z,6.77
2023-04-26T19:32:46.781Z,6.58
2023-04-26T19:38:00.710Z,6.60
2023-04-26T19:43:04.099Z,6.63
2023-04-26T19:48:12.951Z,6.72
2023-04-26T19:53:17.183Z,6.89
2023-04-26T19:58:24.277Z,6.83
2023-04-26T20:03:28.484Z,6.74
2023-04-26T20:08:31.509Z,6.65
2023-04-26T20:13:38.135Z,6.49
2023-04-26T20:18:39.950Z,6.31
2023-04-26T20:23:41.700Z,6.22
2023-04-26T20:28:43.655Z,6.06
2023-04-26T20:33:45.564Z,5.80
2023-04-26T20:38:49.770Z,5.52
2023-04-26T20:43:56.526Z,5.32
2023-04-26T20:49:01.542Z,5.18
2023-04-26T20:54:06.463Z,5.11
2023-04-26T20:59:18.806Z,5.05
2023-04-26T21:04:25.428Z,4.98
2023-04-26T21:09:31.676Z,4.91
2023-04-26T21:14:33.368Z,4.85
2023-04-26T21:19:38.571Z,4.77
2023-04-26T21:24:45.555Z,4.86
2023-04-26T21:29:47.208Z,4.75
2023-04-26T21:34:49.001Z,4.63
2023-04-26T21:39:50.829Z,4.48
2023-04-26T21:45:00.695Z,4.38
2023-04-26T21:50:07.701Z,4.27
2023-04-26T21:55:09.895Z,4.19
2023-04-26T22:00:13.208Z,4.15
2023-04-26T22:05:19.988Z,4.29
2023-04-26T22:10:21.712Z,4.38
2023-04-26T22:15:23.409Z,4.31
2023-04-26T22:20:25.126Z,4.19
2023-04-26T22:25:26.980Z,4.06
2023-04-26T22:30:31.061Z,3.92
2023-04-26T22:35:32.916Z,3.82
2023-04-26T22:40:37.389Z,3.71
2023-04-26T22:45:41.489Z,3.61
2023-04-26T22:50:45.768Z,3.55
2023-04-26T22:55:51.824Z,3.49
2023-04-26T23:00:55.837Z,3.65
2023-04-26T23:05:59.868Z,4.06
2023-04-26T23:11:11.305Z,4.26
2023-04-26T23:16:18.693Z,4.30
2023-04-26T23:21:20.624Z,4.19
2023-04-26T23:26:31.570Z,3.90
2023-04-26T23:31:33.351Z,3.62
2023-04-26T23:36:35.125Z,3.44
2023-04-26T23:41:41.860Z,3.28
2023-04-26T23:46:43.603Z,3.17
2023-04-26T23:51:50.080Z,3.12
2023-04-26T23:56:52.095Z,3.03
